sensor_id;sensor_type;location;lat;lon;timestamp;P1;durP1;ratioP1;P2;durP2;ratioP2
59950;SDS011;45812;53.540;9.774;2023-02-28T00:00:18;4.25;;;2.90;;
59950;SDS011;45812;53.540;9.774;2023-02-28T00:02:44;4.20;;;2.90;;
59950;SDS011;45812;53.540;9.774;2023-02-28T00:05:11;8.20;;;3.17;;
59950;SDS011;45812;53.540;9.774;2023-02-28T00:07:38;6.88;;;2.53;;
59950;SDS011;45812;53.540;9.774;2023-02-28T00:10:05;5.22;;;2.53;;
59950;SDS011;45812;53.540;9.774;2023-02-28T00:12:34;5.35;;;2.67;;
59950;SDS011;45812;53.540;9.774;2023-02-28T00:15:00;7.05;;;2.85;;
59950;SDS011;45812;53.540;9.774;2023-02-28T00:17:26;7.53;;;2.53;;
59950;SDS011;45812;53.540;9.774;2023-02-28T00:19:51;10.25;;;2.90;;
59950;SDS011;45812;53.540;9.774;2023-02-28T00:22:18;7.88;;;2.78;;
59950;SDS011;45812;53.540;9.774;2023-02-28T00:24:44;8.25;;;3.00;;
59950;SDS011;45812;53.540;9.774;2023-02-28T00:27:10;3.97;;;2.35;;
59950;SDS011;45812;53.540;9.774;2023-02-28T00:29:36;8.50;;;3.40;;
59950;SDS011;45812;53.540;9.774;2023-02-28T00:32:01;8.52;;;3.17;;
59950;SDS011;45812;53.540;9.774;2023-02-28T00:34:27;7.68;;;3.47;;
59950;SDS011;45812;53.540;9.774;2023-02-28T00:36:52;3.25;;;2.53;;
59950;SDS011;45812;53.540;9.774;2023-02-28T00:39:17;12.55;;;3.80;;
59950;SDS011;45812;53.540;9.774;2023-02-28T00:41:42;5.70;;;2.53;;
59950;SDS011;45812;53.540;9.774;2023-02-28T00:44:08;7.65;;;2.42;;
59950;SDS011;45812;53.540;9.774;2023-02-28T00:46:34;5.75;;;2.95;;
59950;SDS011;45812;53.540;9.774;2023-02-28T00:48:59;7.05;;;3.10;;
59950;SDS011;45812;53.540;9.774;2023-02-28T00:51:24;6.13;;;2.95;;
59950;SDS011;45812;53.540;9.774;2023-02-28T00:53:49;5.43;;;2.92;;
59950;SDS011;45812;53.540;9.774;2023-02-28T00:56:15;10.52;;;3.17;;
59950;SDS011;45812;53.540;9.774;2023-02-28T00:58:40;10.07;;;3.03;;
59950;SDS011;45812;53.540;9.774;2023-02-28T01:01:05;7.97;;;2.75;;
59950;SDS011;45812;53.540;9.774;2023-02-28T01:03:31;9.65;;;3.22;;
59950;SDS011;45812;53.540;9.774;2023-02-28T01:05:56;8.93;;;3.08;;
59950;SDS011;45812;53.540;9.774;2023-02-28T01:08:22;4.43;;;2.38;;
59950;SDS011;45812;53.540;9.774;2023-02-28T01:10:47;4.40;;;2.40;;
59950;SDS011;45812;53.540;9.774;2023-02-28T01:13:13;7.70;;;2.97;;
59950;SDS011;45812;53.540;9.774;2023-02-28T01:15:40;5.53;;;3.00;;
59950;SDS011;45812;53.540;9.774;2023-02-28T01:18:10;9.48;;;3.05;;
59950;SDS011;45812;53.540;9.774;2023-02-28T01:20:38;6.45;;;3.25;;
59950;SDS011;45812;53.540;9.774;2023-02-28T01:23:03;4.53;;;2.90;;
59950;SDS011;45812;53.540;9.774;2023-02-28T01:25:29;7.32;;;3.35;;
59950;SDS011;45812;53.540;9.774;2023-02-28T01:27:54;8.32;;;2.95;;
59950;SDS011;45812;53.540;9.774;2023-02-28T01:30:19;6.55;;;3.45;;
59950;SDS011;45812;53.540;9.774;2023-02-28T01:32:45;7.03;;;2.65;;
59950;SDS011;45812;53.540;9.774;2023-02-28T01:35:10;4.13;;;2.70;;
59950;SDS011;45812;53.540;9.774;2023-02-28T01:37:35;4.95;;;2.80;;
59950;SDS011;45812;53.540;9.774;2023-02-28T01:40:01;5.88;;;3.13;;
59950;SDS011;45812;53.540;9.774;2023-02-28T01:42:26;6.72;;;2.97;;
59950;SDS011;45812;53.540;9.774;2023-02-28T01:47:26;4.15;;;2.65;;
59950;SDS011;45812;53.540;9.774;2023-02-28T01:49:58;5.28;;;2.53;;
59950;SDS011;45812;53.540;9.774;2023-02-28T01:52:26;6.22;;;3.03;;
59950;SDS011;45812;53.540;9.774;2023-02-28T01:54:54;5.88;;;2.65;;
59950;SDS011;45812;53.540;9.774;2023-02-28T01:57:25;6.03;;;2.85;;
59950;SDS011;45812;53.540;9.774;2023-02-28T02:02:25;4.50;;;2.25;;
59950;SDS011;45812;53.540;9.774;2023-02-28T02:04:53;8.65;;;2.70;;
59950;SDS011;45812;53.540;9.774;2023-02-28T02:07:19;4.35;;;2.42;;
59950;SDS011;45812;53.540;9.774;2023-02-28T02:09:46;9.07;;;2.90;;
59950;SDS011;45812;53.540;9.774;2023-02-28T02:12:31;3.47;;;2.45;;
59950;SDS011;45812;53.540;9.774;2023-02-28T02:15:03;3.35;;;2.20;;
59950;SDS011;45812;53.540;9.774;2023-02-28T02:17:42;5.68;;;2.67;;
59950;SDS011;45812;53.540;9.774;2023-02-28T02:20:27;5.10;;;2.28;;
59950;SDS011;45812;53.540;9.774;2023-02-28T02:29:12;3.42;;;1.92;;
59950;SDS011;45812;53.540;9.774;2023-02-28T02:35:00;2.60;;;2.17;;
59950;SDS011;45812;53.540;9.774;2023-02-28T02:37:38;3.33;;;2.40;;
59950;SDS011;45812;53.540;9.774;2023-02-28T02:40:13;6.82;;;1.85;;
59950;SDS011;45812;53.540;9.774;2023-02-28T02:45:22;3.40;;;2.20;;
59950;SDS011;45812;53.540;9.774;2023-02-28T02:47:52;5.07;;;2.25;;
59950;SDS011;45812;53.540;9.774;2023-02-28T02:50:26;4.55;;;1.90;;
59950;SDS011;45812;53.540;9.774;2023-02-28T02:52:57;3.75;;;1.92;;
59950;SDS011;45812;53.540;9.774;2023-02-28T02:55:26;5.60;;;2.15;;
59950;SDS011;45812;53.540;9.774;2023-02-28T02:57:57;5.03;;;1.90;;
59950;SDS011;45812;53.540;9.774;2023-02-28T03:00:27;5.30;;;2.35;;
59950;SDS011;45812;53.540;9.774;2023-02-28T03:03:02;4.88;;;1.90;;
59950;SDS011;45812;53.540;9.774;2023-02-28T03:05:33;5.95;;;2.17;;
59950;SDS011;45812;53.540;9.774;2023-02-28T03:08:19;5.55;;;2.40;;
59950;SDS011;45812;53.540;9.774;2023-02-28T03:10:45;5.75;;;2.22;;
59950;SDS011;45812;53.540;9.774;2023-02-28T03:16:35;5.05;;;2.45;;
59950;SDS011;45812;53.540;9.774;2023-02-28T03:22:03;8.27;;;2.83;;
59950;SDS011;45812;53.540;9.774;2023-02-28T03:24:43;6.93;;;3.20;;
59950;SDS011;45812;53.540;9.774;2023-02-28T03:30:06;4.15;;;2.53;;
59950;SDS011;45812;53.540;9.774;2023-02-28T03:32:38;6.65;;;3.00;;
59950;SDS011;45812;53.540;9.774;2023-02-28T03:35:14;8.60;;;2.65;;
59950;SDS011;45812;53.540;9.774;2023-02-28T03:37:47;5.20;;;3.25;;
59950;SDS011;45812;53.540;9.774;2023-02-28T03:40:15;5.53;;;2.47;;
59950;SDS011;45812;53.540;9.774;2023-02-28T03:42:46;5.80;;;2.83;;
59950;SDS011;45812;53.540;9.774;2023-02-28T03:45:25;9.30;;;2.88;;
59950;SDS011;45812;53.540;9.774;2023-02-28T03:47:55;4.05;;;2.60;;
59950;SDS011;45812;53.540;9.774;2023-02-28T03:50:39;6.97;;;2.72;;
59950;SDS011;45812;53.540;9.774;2023-02-28T03:53:07;6.28;;;2.75;;
59950;SDS011;45812;53.540;9.774;2023-02-28T03:55:44;7.53;;;3.15;;
59950;SDS011;45812;53.540;9.774;2023-02-28T03:58:16;6.60;;;2.72;;
59950;SDS011;45812;53.540;9.774;2023-02-28T04:00:49;5.60;;;2.40;;
59950;SDS011;45812;53.540;9.774;2023-02-28T04:03:21;7.57;;;2.72;;
59950;SDS011;45812;53.540;9.774;2023-02-28T04:05:48;4.70;;;2.58;;
59950;SDS011;45812;53.540;9.774;2023-02-28T04:08:17;5.50;;;2.15;;
59950;SDS011;45812;53.540;9.774;2023-02-28T04:10:42;5.00;;;2.70;;
59950;SDS011;45812;53.540;9.774;2023-02-28T04:13:13;4.85;;;2.58;;
59950;SDS011;45812;53.540;9.774;2023-02-28T04:15:38;5.93;;;2.22;;
59950;SDS011;45812;53.540;9.774;2023-02-28T04:18:03;2.92;;;2.63;;
59950;SDS011;45812;53.540;9.774;2023-02-28T04:20:28;5.00;;;2.42;;
59950;SDS011;45812;53.540;9.774;2023-02-28T04:22:54;7.05;;;2.63;;
59950;SDS011;45812;53.540;9.774;2023-02-28T04:25:19;5.88;;;2.60;;
59950;SDS011;45812;53.540;9.774;2023-02-28T04:27:44;5.55;;;2.50;;
59950;SDS011;45812;53.540;9.774;2023-02-28T04:30:10;5.63;;;2.70;;
59950;SDS011;45812;53.540;9.774;2023-02-28T04:32:36;5.25;;;2.67;;
59950;SDS011;45812;53.540;9.774;2023-02-28T04:35:01;6.13;;;2.20;;
59950;SDS011;45812;53.540;9.774;2023-02-28T04:37:27;2.17;;;1.88;;
59950;SDS011;45812;53.540;9.774;2023-02-28T04:39:53;5.30;;;2.90;;
59950;SDS011;45812;53.540;9.774;2023-02-28T04:42:19;10.30;;;2.45;;
59950;SDS011;45812;53.540;9.774;2023-02-28T04:44:44;2.88;;;2.17;;
59950;SDS011;45812;53.540;9.774;2023-02-28T04:47:10;5.05;;;2.67;;
59950;SDS011;45812;53.540;9.774;2023-02-28T04:49:35;9.85;;;2.53;;
59950;SDS011;45812;53.540;9.774;2023-02-28T04:52:00;8.02;;;2.83;;
59950;SDS011;45812;53.540;9.774;2023-02-28T04:54:26;7.05;;;2.95;;
59950;SDS011;45812;53.540;9.774;2023-02-28T04:56:51;7.20;;;2.50;;
59950;SDS011;45812;53.540;9.774;2023-02-28T04:59:16;2.60;;;2.15;;
59950;SDS011;45812;53.540;9.774;2023-02-28T05:01:45;5.43;;;2.85;;
59950;SDS011;45812;53.540;9.774;2023-02-28T05:04:11;5.57;;;2.33;;
59950;SDS011;45812;53.540;9.774;2023-02-28T05:06:37;4.65;;;2.63;;
59950;SDS011;45812;53.540;9.774;2023-02-28T05:09:02;4.70;;;2.45;;
59950;SDS011;45812;53.540;9.774;2023-02-28T05:11:31;4.63;;;2.22;;
59950;SDS011;45812;53.540;9.774;2023-02-28T05:14:01;5.60;;;2.55;;
59950;SDS011;45812;53.540;9.774;2023-02-28T05:16:28;5.55;;;2.22;;
59950;SDS011;45812;53.540;9.774;2023-02-28T05:18:53;3.55;;;2.28;;
59950;SDS011;45812;53.540;9.774;2023-02-28T05:23:55;2.75;;;2.33;;
59950;SDS011;45812;53.540;9.774;2023-02-28T05:26:23;6.10;;;2.65;;
59950;SDS011;45812;53.540;9.774;2023-02-28T05:28:48;4.90;;;2.83;;
59950;SDS011;45812;53.540;9.774;2023-02-28T05:31:13;4.70;;;2.60;;
59950;SDS011;45812;53.540;9.774;2023-02-28T05:33:39;2.65;;;2.28;;
59950;SDS011;45812;53.540;9.774;2023-02-28T05:36:04;4.38;;;2.35;;
59950;SDS011;45812;53.540;9.774;2023-02-28T05:38:30;5.38;;;2.65;;
59950;SDS011;45812;53.540;9.774;2023-02-28T05:40:56;6.85;;;2.95;;
59950;SDS011;45812;53.540;9.774;2023-02-28T05:43:21;4.88;;;2.15;;
59950;SDS011;45812;53.540;9.774;2023-02-28T05:45:46;3.03;;;2.42;;
59950;SDS011;45812;53.540;9.774;2023-02-28T05:48:12;7.65;;;3.22;;
59950;SDS011;45812;53.540;9.774;2023-02-28T05:50:37;3.40;;;2.17;;
59950;SDS011;45812;53.540;9.774;2023-02-28T05:53:03;6.70;;;3.53;;
59950;SDS011;45812;53.540;9.774;2023-02-28T05:55:28;10.13;;;2.42;;
59950;SDS011;45812;53.540;9.774;2023-02-28T05:57:54;10.25;;;3.67;;
59950;SDS011;45812;53.540;9.774;2023-02-28T06:00:20;5.85;;;2.92;;
59950;SDS011;45812;53.540;9.774;2023-02-28T06:02:46;4.47;;;2.78;;
59950;SDS011;45812;53.540;9.774;2023-02-28T06:05:16;5.65;;;2.33;;
59950;SDS011;45812;53.540;9.774;2023-02-28T06:07:42;8.95;;;2.70;;
59950;SDS011;45812;53.540;9.774;2023-02-28T06:10:09;7.43;;;2.35;;
59950;SDS011;45812;53.540;9.774;2023-02-28T06:12:35;4.20;;;2.58;;
59950;SDS011;45812;53.540;9.774;2023-02-28T06:15:01;8.38;;;2.72;;
59950;SDS011;45812;53.540;9.774;2023-02-28T06:17:26;5.30;;;2.20;;
59950;SDS011;45812;53.540;9.774;2023-02-28T06:19:51;3.30;;;2.33;;
59950;SDS011;45812;53.540;9.774;2023-02-28T06:22:17;4.80;;;2.97;;
59950;SDS011;45812;53.540;9.774;2023-02-28T06:24:42;4.85;;;2.20;;
59950;SDS011;45812;53.540;9.774;2023-02-28T06:27:07;3.40;;;2.15;;
59950;SDS011;45812;53.540;9.774;2023-02-28T06:29:33;5.90;;;2.40;;
59950;SDS011;45812;53.540;9.774;2023-02-28T06:31:59;8.40;;;3.00;;
59950;SDS011;45812;53.540;9.774;2023-02-28T06:34:24;6.22;;;2.35;;
59950;SDS011;45812;53.540;9.774;2023-02-28T06:36:50;6.20;;;2.38;;
59950;SDS011;45812;53.540;9.774;2023-02-28T06:39:16;6.00;;;2.70;;
59950;SDS011;45812;53.540;9.774;2023-02-28T06:41:41;6.80;;;3.30;;
59950;SDS011;45812;53.540;9.774;2023-02-28T06:44:13;5.30;;;2.75;;
59950;SDS011;45812;53.540;9.774;2023-02-28T06:46:41;7.43;;;3.20;;
59950;SDS011;45812;53.540;9.774;2023-02-28T06:49:07;7.28;;;2.83;;
59950;SDS011;45812;53.540;9.774;2023-02-28T06:51:34;6.10;;;2.78;;
59950;SDS011;45812;53.540;9.774;2023-02-28T06:54:00;5.40;;;3.20;;
59950;SDS011;45812;53.540;9.774;2023-02-28T06:56:26;6.30;;;3.30;;
59950;SDS011;45812;53.540;9.774;2023-02-28T06:58:51;5.95;;;2.72;;
59950;SDS011;45812;53.540;9.774;2023-02-28T07:01:19;9.02;;;3.58;;
59950;SDS011;45812;53.540;9.774;2023-02-28T07:03:45;12.40;;;3.67;;
59950;SDS011;45812;53.540;9.774;2023-02-28T07:06:11;7.90;;;3.47;;
59950;SDS011;45812;53.540;9.774;2023-02-28T07:08:37;8.65;;;3.70;;
59950;SDS011;45812;53.540;9.774;2023-02-28T07:11:02;6.53;;;4.15;;
59950;SDS011;45812;53.540;9.774;2023-02-28T07:13:28;4.97;;;3.28;;
59950;SDS011;45812;53.540;9.774;2023-02-28T07:16:03;8.68;;;3.70;;
59950;SDS011;45812;53.540;9.774;2023-02-28T07:18:30;11.50;;;3.85;;
59950;SDS011;45812;53.540;9.774;2023-02-28T07:20:56;13.90;;;4.70;;
59950;SDS011;45812;53.540;9.774;2023-02-28T07:23:21;12.38;;;4.95;;
59950;SDS011;45812;53.540;9.774;2023-02-28T07:25:47;15.98;;;6.28;;
59950;SDS011;45812;53.540;9.774;2023-02-28T07:28:13;18.27;;;6.15;;
59950;SDS011;45812;53.540;9.774;2023-02-28T07:30:39;14.10;;;5.63;;
59950;SDS011;45812;53.540;9.774;2023-02-28T07:33:05;14.52;;;5.93;;
59950;SDS011;45812;53.540;9.774;2023-02-28T07:35:30;13.10;;;5.72;;
59950;SDS011;45812;53.540;9.774;2023-02-28T07:37:57;10.48;;;4.50;;
59950;SDS011;45812;53.540;9.774;2023-02-28T07:40:23;9.52;;;4.43;;
59950;SDS011;45812;53.540;9.774;2023-02-28T07:42:49;8.38;;;4.20;;
59950;SDS011;45812;53.540;9.774;2023-02-28T07:45:14;8.32;;;4.00;;
59950;SDS011;45812;53.540;9.774;2023-02-28T07:47:40;6.53;;;3.50;;
59950;SDS011;45812;53.540;9.774;2023-02-28T07:50:07;8.57;;;3.28;;
59950;SDS011;45812;53.540;9.774;2023-02-28T07:52:34;3.90;;;3.20;;
59950;SDS011;45812;53.540;9.774;2023-02-28T07:55:01;9.77;;;3.60;;
59950;SDS011;45812;53.540;9.774;2023-02-28T07:57:26;5.28;;;3.13;;
59950;SDS011;45812;53.540;9.774;2023-02-28T07:59:52;8.57;;;3.25;;
59950;SDS011;45812;53.540;9.774;2023-02-28T08:02:17;7.32;;;2.95;;
59950;SDS011;45812;53.540;9.774;2023-02-28T08:04:43;8.85;;;2.83;;
59950;SDS011;45812;53.540;9.774;2023-02-28T08:07:09;2.60;;;2.40;;
59950;SDS011;45812;53.540;9.774;2023-02-28T08:09:38;4.97;;;2.83;;
59950;SDS011;45812;53.540;9.774;2023-02-28T08:12:04;3.83;;;2.60;;
59950;SDS011;45812;53.540;9.774;2023-02-28T08:14:29;5.95;;;2.63;;
59950;SDS011;45812;53.540;9.774;2023-02-28T08:16:54;6.13;;;3.20;;
59950;SDS011;45812;53.540;9.774;2023-02-28T08:19:20;4.30;;;2.65;;
59950;SDS011;45812;53.540;9.774;2023-02-28T08:21:45;5.00;;;3.05;;
59950;SDS011;45812;53.540;9.774;2023-02-28T08:24:10;6.22;;;2.78;;
59950;SDS011;45812;53.540;9.774;2023-02-28T08:26:35;5.40;;;2.40;;
59950;SDS011;45812;53.540;9.774;2023-02-28T08:29:00;5.30;;;2.47;;
59950;SDS011;45812;53.540;9.774;2023-02-28T08:31:26;3.88;;;2.30;;
59950;SDS011;45812;53.540;9.774;2023-02-28T08:33:51;5.40;;;2.80;;
59950;SDS011;45812;53.540;9.774;2023-02-28T08:36:18;4.18;;;2.25;;
59950;SDS011;45812;53.540;9.774;2023-02-28T08:38:45;5.22;;;2.53;;
59950;SDS011;45812;53.540;9.774;2023-02-28T08:41:11;4.15;;;2.15;;
59950;SDS011;45812;53.540;9.774;2023-02-28T08:43:37;2.55;;;2.08;;
59950;SDS011;45812;53.540;9.774;2023-02-28T08:46:04;5.95;;;2.67;;
59950;SDS011;45812;53.540;9.774;2023-02-28T08:48:30;3.70;;;1.88;;
59950;SDS011;45812;53.540;9.774;2023-02-28T08:50:57;2.85;;;2.35;;
59950;SDS011;45812;53.540;9.774;2023-02-28T08:53:24;3.30;;;2.30;;
59950;SDS011;45812;53.540;9.774;2023-02-28T08:55:57;3.53;;;2.28;;
59950;SDS011;45812;53.540;9.774;2023-02-28T09:00:49;3.78;;;2.35;;
59950;SDS011;45812;53.540;9.774;2023-02-28T09:03:15;2.47;;;1.98;;
59950;SDS011;45812;53.540;9.774;2023-02-28T09:05:40;6.75;;;2.42;;
59950;SDS011;45812;53.540;9.774;2023-02-28T09:08:05;7.18;;;3.05;;
59950;SDS011;45812;53.540;9.774;2023-02-28T09:10:31;4.07;;;2.45;;
59950;SDS011;45812;53.540;9.774;2023-02-28T09:12:56;3.65;;;2.33;;
59950;SDS011;45812;53.540;9.774;2023-02-28T09:15:21;5.75;;;1.90;;
59950;SDS011;45812;53.540;9.774;2023-02-28T09:17:46;2.42;;;2.03;;
59950;SDS011;45812;53.540;9.774;2023-02-28T09:20:12;2.97;;;1.88;;
59950;SDS011;45812;53.540;9.774;2023-02-28T09:22:38;6.55;;;2.15;;
59950;SDS011;45812;53.540;9.774;2023-02-28T09:25:03;8.68;;;2.78;;
59950;SDS011;45812;53.540;9.774;2023-02-28T09:27:29;6.28;;;2.30;;
59950;SDS011;45812;53.540;9.774;2023-02-28T09:29:54;6.50;;;2.63;;
59950;SDS011;45812;53.540;9.774;2023-02-28T09:32:19;5.50;;;2.40;;
59950;SDS011;45812;53.540;9.774;2023-02-28T09:34:45;4.95;;;2.00;;
59950;SDS011;45812;53.540;9.774;2023-02-28T09:37:10;4.47;;;1.95;;
59950;SDS011;45812;53.540;9.774;2023-02-28T09:39:35;4.90;;;2.30;;
59950;SDS011;45812;53.540;9.774;2023-02-28T09:42:00;4.43;;;1.93;;
59950;SDS011;45812;53.540;9.774;2023-02-28T09:44:38;5.45;;;2.47;;
59950;SDS011;45812;53.540;9.774;2023-02-28T09:47:12;5.28;;;2.42;;
59950;SDS011;45812;53.540;9.774;2023-02-28T09:49:44;4.68;;;2.47;;
59950;SDS011;45812;53.540;9.774;2023-02-28T09:52:14;5.90;;;2.00;;
59950;SDS011;45812;53.540;9.774;2023-02-28T09:54:44;2.10;;;1.60;;
59950;SDS011;45812;53.540;9.774;2023-02-28T10:05:15;2.75;;;2.17;;
59950;SDS011;45812;53.540;9.774;2023-02-28T10:07:56;3.20;;;1.95;;
59950;SDS011;45812;53.540;9.774;2023-02-28T10:10:34;2.58;;;1.42;;
59950;SDS011;45812;53.540;9.774;2023-02-28T10:13:06;1.50;;;0.88;;
59950;SDS011;45812;53.540;9.774;2023-02-28T10:15:39;2.33;;;0.93;;
59950;SDS011;45812;53.540;9.774;2023-02-28T10:18:09;1.92;;;1.38;;
59950;SDS011;45812;53.540;9.774;2023-02-28T10:20:39;2.45;;;1.42;;
59950;SDS011;45812;53.540;9.774;2023-02-28T10:23:14;2.63;;;1.40;;
59950;SDS011;45812;53.540;9.774;2023-02-28T10:25:45;2.58;;;1.25;;
59950;SDS011;45812;53.540;9.774;2023-02-28T10:28:17;4.50;;;1.05;;
59950;SDS011;45812;53.540;9.774;2023-02-28T10:30:47;1.20;;;1.00;;
59950;SDS011;45812;53.540;9.774;2023-02-28T10:33:25;1.25;;;0.98;;
59950;SDS011;45812;53.540;9.774;2023-02-28T10:35:54;0.90;;;0.77;;
59950;SDS011;45812;53.540;9.774;2023-02-28T10:38:24;1.17;;;1.00;;
59950;SDS011;45812;53.540;9.774;2023-02-28T10:40:52;2.67;;;1.65;;
59950;SDS011;45812;53.540;9.774;2023-02-28T10:43:29;1.75;;;1.13;;
59950;SDS011;45812;53.540;9.774;2023-02-28T10:46:02;2.37;;;1.40;;
59950;SDS011;45812;53.540;9.774;2023-02-28T10:48:39;2.55;;;1.17;;
59950;SDS011;45812;53.540;9.774;2023-02-28T10:51:07;5.18;;;1.65;;
59950;SDS011;45812;53.540;9.774;2023-02-28T10:53:39;2.80;;;2.10;;
59950;SDS011;45812;53.540;9.774;2023-02-28T11:01:24;3.50;;;1.52;;
59950;SDS011;45812;53.540;9.774;2023-02-28T11:04:00;4.10;;;2.00;;
59950;SDS011;45812;53.540;9.774;2023-02-28T11:06:29;1.90;;;1.20;;
59950;SDS011;45812;53.540;9.774;2023-02-28T11:08:58;3.42;;;1.35;;
59950;SDS011;45812;53.540;9.774;2023-02-28T11:11:26;3.95;;;1.65;;
59950;SDS011;45812;53.540;9.774;2023-02-28T11:13:55;2.70;;;1.45;;
59950;SDS011;45812;53.540;9.774;2023-02-28T11:16:31;1.23;;;1.13;;
59950;SDS011;45812;53.540;9.774;2023-02-28T11:18:58;2.53;;;1.63;;
59950;SDS011;45812;53.540;9.774;2023-02-28T11:21:26;4.68;;;1.55;;
59950;SDS011;45812;53.540;9.774;2023-02-28T11:23:56;4.95;;;1.63;;
59950;SDS011;45812;53.540;9.774;2023-02-28T11:26:47;2.80;;;1.70;;
59950;SDS011;45812;53.540;9.774;2023-02-28T11:32:03;3.88;;;1.95;;
59950;SDS011;45812;53.540;9.774;2023-02-28T11:34:43;1.92;;;1.42;;
59950;SDS011;45812;53.540;9.774;2023-02-28T11:37:15;3.60;;;1.55;;
59950;SDS011;45812;53.540;9.774;2023-02-28T11:42:23;1.98;;;1.33;;
59950;SDS011;45812;53.540;9.774;2023-02-28T11:50:31;1.90;;;1.60;;
59950;SDS011;45812;53.540;9.774;2023-02-28T11:56:11;3.25;;;1.50;;
59950;SDS011;45812;53.540;9.774;2023-02-28T11:59:03;1.58;;;1.48;;
59950;SDS011;45812;53.540;9.774;2023-02-28T12:01:56;1.30;;;1.20;;
59950;SDS011;45812;53.540;9.774;2023-02-28T12:17:46;2.08;;;1.40;;
59950;SDS011;45812;53.540;9.774;2023-02-28T12:23:21;2.83;;;1.50;;
59950;SDS011;45812;53.540;9.774;2023-02-28T12:28:34;1.70;;;1.60;;
59950;SDS011;45812;53.540;9.774;2023-02-28T12:31:09;4.15;;;1.92;;
59950;SDS011;45812;53.540;9.774;2023-02-28T12:33:46;3.97;;;1.30;;
59950;SDS011;45812;53.540;9.774;2023-02-28T12:36:16;2.17;;;1.65;;
59950;SDS011;45812;53.540;9.774;2023-02-28T12:41:34;4.10;;;1.55;;
59950;SDS011;45812;53.540;9.774;2023-02-28T12:44:13;2.42;;;1.48;;
59950;SDS011;45812;53.540;9.774;2023-02-28T12:46:54;2.75;;;1.20;;
59950;SDS011;45812;53.540;9.774;2023-02-28T12:49:34;2.90;;;1.80;;
59950;SDS011;45812;53.540;9.774;2023-02-28T12:52:04;5.20;;;1.30;;
59950;SDS011;45812;53.540;9.774;2023-02-28T12:57:18;1.92;;;1.30;;
59950;SDS011;45812;53.540;9.774;2023-02-28T12:59:56;2.83;;;1.67;;
59950;SDS011;45812;53.540;9.774;2023-02-28T13:04:59;2.92;;;1.05;;
59950;SDS011;45812;53.540;9.774;2023-02-28T13:07:40;1.95;;;1.13;;
59950;SDS011;45812;53.540;9.774;2023-02-28T13:10:09;2.72;;;1.67;;
59950;SDS011;45812;53.540;9.774;2023-02-28T13:12:35;3.97;;;1.45;;
59950;SDS011;45812;53.540;9.774;2023-02-28T13:15:22;3.55;;;1.65;;
59950;SDS011;45812;53.540;9.774;2023-02-28T13:17:54;3.53;;;1.73;;
59950;SDS011;45812;53.540;9.774;2023-02-28T13:20:37;2.63;;;1.67;;
59950;SDS011;45812;53.540;9.774;2023-02-28T13:23:35;4.78;;;1.75;;
59950;SDS011;45812;53.540;9.774;2023-02-28T13:26:06;2.40;;;1.05;;
59950;SDS011;45812;53.540;9.774;2023-02-28T13:31:15;3.33;;;1.30;;
59950;SDS011;45812;53.540;9.774;2023-02-28T13:36:23;1.65;;;1.20;;
59950;SDS011;45812;53.540;9.774;2023-02-28T13:38:51;5.55;;;2.17;;
59950;SDS011;45812;53.540;9.774;2023-02-28T13:41:40;7.38;;;1.67;;
59950;SDS011;45812;53.540;9.774;2023-02-28T13:44:07;5.75;;;1.27;;
59950;SDS011;45812;53.540;9.774;2023-02-28T13:49:23;1.97;;;1.47;;
59950;SDS011;45812;53.540;9.774;2023-02-28T13:51:53;4.00;;;1.67;;
59950;SDS011;45812;53.540;9.774;2023-02-28T13:57:35;2.27;;;2.07;;
59950;SDS011;45812;53.540;9.774;2023-02-28T14:00:40;3.75;;;2.05;;
59950;SDS011;45812;53.540;9.774;2023-02-28T14:03:22;3.35;;;1.52;;
59950;SDS011;45812;53.540;9.774;2023-02-28T14:08:58;3.72;;;1.98;;
59950;SDS011;45812;53.540;9.774;2023-02-28T14:11:28;4.43;;;1.85;;
59950;SDS011;45812;53.540;9.774;2023-02-28T14:13:56;3.25;;;2.08;;
59950;SDS011;45812;53.540;9.774;2023-02-28T14:16:26;1.50;;;1.40;;
59950;SDS011;45812;53.540;9.774;2023-02-28T14:18:56;4.80;;;2.40;;
59950;SDS011;45812;53.540;9.774;2023-02-28T14:21:26;5.40;;;2.30;;
59950;SDS011;45812;53.540;9.774;2023-02-28T14:26:51;4.53;;;2.20;;
59950;SDS011;45812;53.540;9.774;2023-02-28T14:34:53;3.23;;;1.60;;
59950;SDS011;45812;53.540;9.774;2023-02-28T14:37:26;4.65;;;1.75;;
59950;SDS011;45812;53.540;9.774;2023-02-28T14:39:55;4.10;;;1.90;;
59950;SDS011;45812;53.540;9.774;2023-02-28T14:42:33;4.65;;;1.70;;
59950;SDS011;45812;53.540;9.774;2023-02-28T14:45:02;4.03;;;1.90;;
59950;SDS011;45812;53.540;9.774;2023-02-28T14:47:32;3.78;;;1.50;;
59950;SDS011;45812;53.540;9.774;2023-02-28T14:50:00;3.00;;;1.88;;
59950;SDS011;45812;53.540;9.774;2023-02-28T14:52:27;3.90;;;1.42;;
59950;SDS011;45812;53.540;9.774;2023-02-28T14:54:55;4.05;;;1.77;;
59950;SDS011;45812;53.540;9.774;2023-02-28T14:57:27;3.13;;;1.55;;
59950;SDS011;45812;53.540;9.774;2023-02-28T15:00:12;1.67;;;1.40;;
59950;SDS011;45812;53.540;9.774;2023-02-28T15:02:39;2.40;;;1.75;;
59950;SDS011;45812;53.540;9.774;2023-02-28T15:07:34;3.38;;;1.75;;
59950;SDS011;45812;53.540;9.774;2023-02-28T15:10:06;5.00;;;2.17;;
59950;SDS011;45812;53.540;9.774;2023-02-28T15:12:34;2.88;;;1.90;;
59950;SDS011;45812;53.540;9.774;2023-02-28T15:15:00;3.80;;;1.67;;
59950;SDS011;45812;53.540;9.774;2023-02-28T15:17:26;3.45;;;1.85;;
59950;SDS011;45812;53.540;9.774;2023-02-28T15:19:52;3.15;;;1.65;;
59950;SDS011;45812;53.540;9.774;2023-02-28T15:22:19;3.08;;;1.73;;
59950;SDS011;45812;53.540;9.774;2023-02-28T15:24:54;2.50;;;1.75;;
59950;SDS011;45812;53.540;9.774;2023-02-28T15:27:21;2.95;;;1.80;;
59950;SDS011;45812;53.540;9.774;2023-02-28T15:29:54;3.65;;;2.15;;
59950;SDS011;45812;53.540;9.774;2023-02-28T15:34:51;5.22;;;1.92;;
59950;SDS011;45812;53.540;9.774;2023-02-28T15:39:58;4.63;;;2.15;;
59950;SDS011;45812;53.540;9.774;2023-02-28T15:42:30;2.85;;;2.05;;
59950;SDS011;45812;53.540;9.774;2023-02-28T15:44:56;4.50;;;1.92;;
59950;SDS011;45812;53.540;9.774;2023-02-28T15:47:23;3.58;;;1.55;;
59950;SDS011;45812;53.540;9.774;2023-02-28T15:49:51;3.78;;;1.95;;
59950;SDS011;45812;53.540;9.774;2023-02-28T15:52:20;2.15;;;1.80;;
59950;SDS011;45812;53.540;9.774;2023-02-28T15:54:51;2.60;;;2.00;;
59950;SDS011;45812;53.540;9.774;2023-02-28T15:57:24;2.10;;;1.60;;
59950;SDS011;45812;53.540;9.774;2023-02-28T15:59:55;3.42;;;2.20;;
59950;SDS011;45812;53.540;9.774;2023-02-28T16:02:32;3.70;;;2.13;;
59950;SDS011;45812;53.540;9.774;2023-02-28T16:05:16;3.35;;;1.80;;
59950;SDS011;45812;53.540;9.774;2023-02-28T16:07:55;4.25;;;1.85;;
59950;SDS011;45812;53.540;9.774;2023-02-28T16:10:23;3.58;;;1.77;;
59950;SDS011;45812;53.540;9.774;2023-02-28T16:12:52;5.88;;;1.90;;
59950;SDS011;45812;53.540;9.774;2023-02-28T16:15:20;2.65;;;1.98;;
59950;SDS011;45812;53.540;9.774;2023-02-28T16:17:51;6.53;;;1.85;;
59950;SDS011;45812;53.540;9.774;2023-02-28T16:20:18;3.70;;;1.95;;
59950;SDS011;45812;53.540;9.774;2023-02-28T16:22:51;2.35;;;1.40;;
59950;SDS011;45812;53.540;9.774;2023-02-28T16:25:18;5.43;;;2.08;;
59950;SDS011;45812;53.540;9.774;2023-02-28T16:27:49;3.63;;;1.50;;
59950;SDS011;45812;53.540;9.774;2023-02-28T16:30:19;2.10;;;1.60;;
59950;SDS011;45812;53.540;9.774;2023-02-28T16:32:47;6.00;;;2.50;;
59950;SDS011;45812;53.540;9.774;2023-02-28T16:35:14;7.25;;;2.90;;
59950;SDS011;45812;53.540;9.774;2023-02-28T16:37:39;5.95;;;2.92;;
59950;SDS011;45812;53.540;9.774;2023-02-28T16:40:06;7.22;;;3.13;;
59950;SDS011;45812;53.540;9.774;2023-02-28T16:42:34;6.82;;;2.95;;
59950;SDS011;45812;53.540;9.774;2023-02-28T16:44:59;5.10;;;3.00;;
59950;SDS011;45812;53.540;9.774;2023-02-28T16:47:24;10.83;;;3.10;;
59950;SDS011;45812;53.540;9.774;2023-02-28T16:49:51;2.75;;;2.33;;
59950;SDS011;45812;53.540;9.774;2023-02-28T16:52:17;3.13;;;2.28;;
59950;SDS011;45812;53.540;9.774;2023-02-28T16:54:42;3.67;;;2.50;;